Time;durP1;ratioP1;P1;durP2;ratioP2;P2;SDS_P1;SDS_P2;PMS_P1;PMS_P2;Temp;Humidity;BMP_temperature;BMP_pressure;BME280_temperature;BME280_humidity;BME280_pressure;Samples;Min_cycle;Max_cycle;Signal;HPM_P1;HPM_P2
2022/12/18 00:01:56;;;;;;;20.07;16.50;;;;;;;19.11;36.73;98511.22;4943699;28;20220;-93
2022/12/18 00:04:24;;;;;;;18.63;16.13;;;;;;;19.65;36.70;98605.13;4959592;28;20197;-90
2022/12/18 00:06:50;;;;;;;17.67;15.77;;;;;;;18.84;37.07;98468.97;4944235;28;20308;-94
2022/12/18 00:09:17;;;;;;;17.50;15.53;;;;;;;18.57;36.74;98423.28;4958741;28;20237;-93
2022/12/18 00:11:44;;;;;;;17.50;15.43;;;;;;;18.77;36.83;98468.56;4943191;28;20236;-94
2022/12/18 00:14:11;;;;;;;16.83;15.03;;;;;;;19.12;36.60;98519.72;4944018;28;20211;-93
2022/12/18 00:16:38;;;;;;;16.23;14.53;;;;;;;18.92;36.63;98479.59;4945918;28;20245;-94
2022/12/18 00:19:05;;;;;;;17.40;15.60;;;;;;;18.68;36.63;98442.59;4920733;28;20194;-93
2022/12/18 00:21:32;;;;;;;19.50;16.33;;;;;;;19.62;36.80;98595.63;4948051;28;20225;-93
2022/12/18 00:23:59;;;;;;;16.47;14.67;;;;;;;19.04;36.85;98500.63;4928355;28;20222;-92
2022/12/18 00:26:30;;;;;;;17.70;15.57;;;;;;;18.74;36.78;98420.00;4959354;28;20181;-93
2022/12/18 00:29:06;;;;;;;16.57;14.23;;;;;;;18.63;36.79;98413.44;4943728;28;20265;-93
2022/12/18 00:31:33;;;;;;;17.27;15.10;;;;;;;19.09;36.75;98504.28;4943543;28;20235;-93
2022/12/18 00:34:00;;;;;;;16.60;14.57;;;;;;;18.60;36.70;98426.91;4959874;28;20208;-94
2022/12/18 00:36:29;;;;;;;16.53;14.27;;;;;;;19.66;36.82;98609.44;4943432;28;20193;-94
2022/12/18 00:38:56;;;;;;;16.37;14.50;;;;;;;19.45;36.86;98576.00;4939405;28;20201;-94
2022/12/18 00:44:09;;;;;;;17.47;15.50;;;;;;;18.27;36.90;98335.06;4945910;28;20233;-90
2022/12/18 00:46:36;;;;;;;18.37;14.77;;;;;;;18.93;36.68;98450.75;4942885;28;20189;-94
2022/12/18 00:49:03;;;;;;;16.33;14.63;;;;;;;18.66;36.84;98413.63;4959409;28;20196;-94
2022/12/18 00:51:30;;;;;;;16.07;14.27;;;;;;;19.24;37.00;98521.28;4940158;28;20233;-94
2022/12/18 00:53:56;;;;;;;16.40;14.40;;;;;;;18.99;36.81;98474.91;4942983;28;20197;-90
2022/12/18 00:56:23;;;;;;;16.33;14.07;;;;;;;19.12;36.83;98522.28;4958640;28;20566;-94
2022/12/18 00:58:50;;;;;;;16.27;14.57;;;;;;;19.02;36.76;98486.91;4958572;28;20215;-94
2022/12/18 01:01:16;;;;;;;15.70;14.00;;;;;;;19.04;36.65;98498.94;4923188;28;20245;-91
2022/12/18 01:03:45;;;;;;;16.13;14.43;;;;;;;19.79;36.38;98652.66;4958536;28;20216;-93
2022/12/18 01:06:12;;;;;;;16.10;14.40;;;;;;;18.97;36.78;98503.59;4943014;28;20208;-93
2022/12/18 01:08:38;;;;;;;17.37;14.60;;;;;;;19.04;36.60;98508.28;4950300;28;20193;-94
2022/12/18 01:11:12;;;;;;;17.60;14.00;;;;;;;19.57;36.54;98619.16;4957802;28;20188;-92
2022/12/18 01:13:39;;;;;;;16.37;14.23;;;;;;;19.55;36.77;98618.19;4941941;28;20189;-94
2022/12/18 01:16:06;;;;;;;16.37;14.27;;;;;;;19.27;36.82;98556.31;4959477;28;20196;-92
2022/12/18 01:18:33;;;;;;;16.03;13.57;;;;;;;18.97;36.70;98521.44;4943507;28;20208;-93
2022/12/18 01:21:00;;;;;;;16.57;13.93;;;;;;;19.00;36.77;98522.50;4959444;28;20209;-94
2022/12/18 01:23:26;;;;;;;15.93;13.57;;;;;;;19.20;36.84;98557.59;4975228;28;20181;-93
2022/12/18 01:25:53;;;;;;;16.20;13.77;;;;;;;19.06;36.76;98540.66;4959536;28;20203;-93
2022/12/18 01:28:19;;;;;;;16.97;14.80;;;;;;;18.85;36.60;98514.00;4943220;28;20192;-92
2022/12/18 01:30:46;;;;;;;16.37;14.00;;;;;;;18.72;36.86;98485.25;4959015;28;20229;-93
2022/12/18 01:33:12;;;;;;;16.33;13.87;;;;;;;19.65;36.87;98653.56;4959575;28;20247;-94
2022/12/18 01:35:42;;;;;;;17.20;14.30;;;;;;;18.85;36.86;98531.84;4943268;28;20209;-93
2022/12/18 01:38:09;;;;;;;16.40;13.70;;;;;;;18.89;36.75;98528.66;4959258;28;20192;-92
2022/12/18 01:40:36;;;;;;;16.13;14.40;;;;;;;19.53;36.81;98643.59;4958459;28;20217;-93
2022/12/18 01:43:02;;;;;;;15.77;13.17;;;;;;;18.96;36.82;98543.50;4953846;28;20212;-93
2022/12/18 01:45:30;;;;;;;15.80;13.53;;;;;;;18.61;36.87;98487.19;4943205;28;20211;-93
2022/12/18 01:48:05;;;;;;;14.97;13.10;;;;;;;18.85;36.69;98538.59;4927468;28;20252;-94
2022/12/18 01:50:37;;;;;;;16.90;13.87;;;;;;;19.98;36.69;98715.75;4945286;28;20212;-93
2022/12/18 01:53:11;;;;;;;16.97;13.83;;;;;;;18.81;36.71;98514.66;4940316;28;20212;-93
2022/12/18 01:55:49;;;;;;;16.23;13.57;;;;;;;19.24;36.66;98602.84;4943538;28;20217;-93
2022/12/18 01:58:16;;;;;;;15.73;13.30;;;;;;;18.22;36.46;98428.94;4924519;28;20181;-94
2022/12/18 02:00:43;;;;;;;16.97;14.10;;;;;;;18.70;36.68;98502.97;4959510;28;20225;-94
2022/12/18 02:03:10;;;;;;;16.07;13.47;;;;;;;18.74;36.87;98501.50;4958185;28;20232;-93
2022/12/18 02:05:48;;;;;;;15.00;13.00;;;;;;;18.89;36.57;98512.53;4926780;28;20193;-93
2022/12/18 02:08:31;;;;;;;15.17;13.20;;;;;;;20.04;36.68;98714.41;4958481;28;20260;-93
2022/12/18 02:11:04;;;;;;;15.83;13.47;;;;;;;20.05;36.57;98721.28;4937505;28;20193;-93
2022/12/18 02:13:42;;;;;;;16.07;12.87;;;;;;;20.04;36.94;98716.94;4958632;28;20221;-93
2022/12/18 02:16:19;;;;;;;15.43;12.77;;;;;;;20.04;36.94;98718.66;4958582;28;20220;-93
2022/12/18 02:18:49;;;;;;;14.37;12.87;;;;;;;18.82;36.72;98505.31;4958532;28;20196;-93
2022/12/18 02:21:48;;;;;;;15.10;12.77;;;;;;;18.86;36.80;98509.81;4943179;28;20230;-93
2022/12/18 02:24:43;;;;;;;14.50;12.57;;;;;;;19.03;36.69;98570.19;4922279;28;20186;-93
2022/12/18 02:27:10;;;;;;;16.10;12.53;;;;;;;19.02;36.97;98560.78;4954906;28;20224;-94
2022/12/18 02:29:40;;;;;;;14.07;12.47;;;;;;;17.77;36.99;98328.00;4974023;28;20185;-94
2022/12/18 02:32:10;;;;;;;15.17;12.47;;;;;;;18.68;36.92;98468.06;4927124;28;20221;-92
2022/12/18 02:34:37;;;;;;;14.37;12.60;;;;;;;18.59;36.87;98465.00;4941309;28;20193;-93
2022/12/18 02:37:06;;;;;;;14.67;11.63;;;;;;;20.04;37.00;98695.69;4942810;28;20244;-93
2022/12/18 02:39:33;;;;;;;15.23;12.83;;;;;;;19.52;36.88;98615.47;4958324;28;20256;-94
2022/12/18 02:42:02;;;;;;;14.37;12.43;;;;;;;18.61;37.07;98459.19;4942896;28;20221;-93
2022/12/18 02:44:28;;;;;;;15.47;13.37;;;;;;;17.74;36.89;98314.28;4956178;28;20189;-93
2022/12/18 02:46:55;;;;;;;15.10;13.07;;;;;;;18.93;36.87;98522.97;4958760;28;20200;-93
2022/12/18 02:49:45;;;;;;;14.33;12.30;;;;;;;18.88;36.84;98508.19;4957907;28;20201;-92
2022/12/18 02:52:18;;;;;;;14.97;12.67;;;;;;;20.04;36.96;98703.34;4941964;28;20231;-92
2022/12/18 02:55:18;;;;;;;13.90;12.33;;;;;;;18.39;37.25;98437.53;4958620;28;20212;-94
2022/12/18 02:57:45;;;;;;;15.87;12.43;;;;;;;20.05;36.88;98712.72;4957862;28;20200;-93
2022/12/18 03:00:18;;;;;;;14.87;12.57;;;;;;;19.08;36.99;98545.84;4958218;28;20217;-93
2022/12/18 03:02:52;;;;;;;13.80;12.30;;;;;;;18.69;36.99;98473.22;4924083;28;20212;-94
2022/12/18 03:05:24;;;;;;;13.10;11.37;;;;;;;18.67;37.27;98453.53;4943541;28;20192;-94
2022/12/18 03:08:07;;;;;;;13.00;11.60;;;;;;;19.54;37.00;98611.34;4939596;28;20233;-94
2022/12/18 03:10:42;;;;;;;14.30;12.00;;;;;;;19.42;37.03;98601.31;4957815;28;20192;-94
2022/12/18 03:13:10;;;;;;;14.43;12.23;;;;;;;18.87;37.07;98494.59;4927579;28;20208;-94
2022/12/18 03:15:38;;;;;;;14.63;12.17;;;;;;;20.05;36.81;98716.19;4957989;28;20193;-94
2022/12/18 03:18:15;;;;;;;15.10;11.77;;;;;;;19.38;36.57;98608.72;4942233;28;20209;-92
2022/12/18 03:20:42;;;;;;;13.93;12.13;;;;;;;19.11;36.24;98566.41;4957825;28;20243;-92
2022/12/18 03:23:17;;;;;;;14.40;11.93;;;;;;;19.10;36.75;98549.38;4942163;28;20220;-95
2022/12/18 03:25:44;;;;;;;14.00;11.87;;;;;;;19.21;36.85;98566.09;4942753;28;20185;-94
2022/12/18 03:28:13;;;;;;;13.80;11.77;;;;;;;18.55;36.61;98443.56;4942187;28;20228;-93
2022/12/18 03:30:41;;;;;;;14.73;12.40;;;;;;;19.56;36.77;98630.13;4941837;28;20213;-93
2022/12/18 03:33:10;;;;;;;13.30;11.50;;;;;;;20.06;36.91;98722.13;4909047;23;20253;-91
2022/12/18 03:35:41;;;;;;;13.23;11.40;;;;;;;19.59;36.94;98640.50;4893306;29;20210;-90
2022/12/18 03:38:08;;;;;;;12.80;11.47;;;;;;;17.79;36.88;98328.97;4886950;29;20591;-91
2022/12/18 03:40:43;;;;;;;12.50;11.20;;;;;;;17.48;37.13;98266.16;4892059;29;20314;-90
2022/12/18 03:43:29;;;;;;;13.53;11.70;;;;;;;17.65;36.90;98377.31;4868782;29;20234;-90
2022/12/18 03:46:20;;;;;;;13.77;11.80;;;;;;;18.83;36.91;98509.63;4875259;29;20223;-91
2022/12/18 03:49:01;;;;;;;13.30;10.90;;;;;;;19.66;37.12;98633.25;4876709;29;20204;-91
2022/12/18 03:51:37;;;;;;;13.53;11.77;;;;;;;18.34;37.04;98408.38;4873333;29;20257;-91
2022/12/18 03:54:04;;;;;;;12.70;10.67;;;;;;;20.05;36.80;98703.41;4867584;29;20239;-89
2022/12/18 03:56:33;;;;;;;13.40;11.30;;;;;;;19.10;37.01;98539.19;4858199;29;20238;-89
2022/12/18 03:59:00;;;;;;;13.60;11.53;;;;;;;18.63;37.15;98456.72;4877953;29;20294;-91
2022/12/18 04:01:35;;;;;;;11.57;10.37;;;;;;;19.49;36.98;98616.19;4877081;29;20254;-90
2022/12/18 04:04:05;;;;;;;13.33;11.27;;;;;;;19.90;37.24;98687.28;4853319;29;20805;-90
2022/12/18 04:06:38;;;;;;;12.63;11.10;;;;;;;19.27;36.98;98582.66;4873327;29;20615;-90
2022/12/18 04:09:04;;;;;;;11.97;10.07;;;;;;;18.08;37.28;98433.25;4857317;29;20214;-90
2022/12/18 04:11:31;;;;;;;12.83;11.13;;;;;;;18.55;37.04;98456.31;4860999;29;20251;-91
2022/12/18 04:13:58;;;;;;;12.03;10.73;;;;;;;17.02;37.21;98216.03;4879508;29;20212;-91
2022/12/18 04:16:25;;;;;;;12.13;10.80;;;;;;;19.33;37.01;98582.97;4858786;29;20259;-90
2022/12/18 04:18:52;;;;;;;12.70;10.57;;;;;;;18.43;37.21;98429.28;4862067;29;20211;-88
2022/12/18 04:21:19;;;;;;;12.73;11.03;;;;;;;18.96;37.13;98523.13;4862697;29;20779;-90
2022/12/18 04:23:48;;;;;;;13.10;11.07;;;;;;;18.94;37.00;98523.81;4857187;29;20207;-91
2022/12/18 04:26:14;;;;;;;11.33;10.03;;;;;;;18.78;37.08;98498.31;4877692;29;20252;-90
2022/12/18 04:28:41;;;;;;;10.53;9.30;;;;;;;19.85;36.94;98698.91;4868166;29;20299;-91
2022/12/18 04:31:07;;;;;;;12.03;10.73;;;;;;;18.04;37.17;98372.81;4866791;29;20652;-90
2022/12/18 04:33:34;;;;;;;11.20;9.93;;;;;;;18.45;36.92;98446.41;4832641;29;1220984;-91
2022/12/18 04:36:01;;;;;;;10.80;9.60;;;;;;;18.62;37.25;98480.44;4860221;29;20219;-90
2022/12/18 04:38:28;;;;;;;11.67;10.40;;;;;;;18.71;36.84;98535.28;4859500;29;20642;-90
2022/12/18 04:40:54;;;;;;;12.03;10.47;;;;;;;16.73;36.61;98208.38;4874900;29;20279;-90
2022/12/18 04:43:21;;;;;;;11.00;9.87;;;;;;;19.25;36.87;98673.44;4874915;29;20318;-90
2022/12/18 04:45:48;;;;;;;11.37;10.10;;;;;;;19.54;36.87;98673.38;4847185;29;20225;-90
2022/12/18 04:48:15;;;;;;;12.67;10.63;;;;;;;18.52;36.82;98483.25;4858466;29;20550;-90
2022/12/18 04:50:41;;;;;;;11.67;10.33;;;;;;;19.34;36.80;98614.47;4860710;29;20302;-89
2022/12/18 04:53:08;;;;;;;12.23;10.53;;;;;;;18.11;36.87;98400.34;4847383;29;20233;-89
2022/12/18 04:55:35;;;;;;;11.07;9.90;;;;;;;19.61;36.75;98662.75;4874196;29;20214;-90
2022/12/18 04:58:02;;;;;;;11.50;10.07;;;;;;;18.67;36.89;98486.66;4862562;29;20235;-91
2022/12/18 05:00:28;;;;;;;11.63;10.43;;;;;;;19.85;37.09;98692.13;4889927;29;20208;-89
2022/12/18 05:02:55;;;;;;;10.50;9.40;;;;;;;20.02;36.99;98734.72;4860883;29;20279;-90
2022/12/18 05:05:22;;;;;;;10.70;9.60;;;;;;;19.81;37.04;98702.09;4882047;29;20203;-90
2022/12/18 05:07:48;;;;;;;11.13;9.40;;;;;;;18.60;36.87;98495.63;4876523;29;20695;-91
2022/12/18 05:10:15;;;;;;;10.87;9.70;;;;;;;18.20;36.94;98420.34;4874794;29;20265;-91
2022/12/18 05:13:00;;;;;;;10.37;9.20;;;;;;;17.54;37.02;98320.78;4862022;29;20543;-90
2022/12/18 05:15:30;;;;;;;10.30;9.20;;;;;;;19.58;37.13;98687.19;4863935;29;20659;-90
2022/12/18 05:17:57;;;;;;;11.17;9.73;;;;;;;19.49;37.09;98669.72;4857656;29;20682;-91
2022/12/18 05:20:25;;;;;;;10.53;9.33;;;;;;;16.81;37.11;98194.50;4877101;29;20725;-90
2022/12/18 05:22:52;;;;;;;10.43;9.33;;;;;;;18.89;37.12;98563.47;4847668;29;20227;-90
2022/12/18 05:25:19;;;;;;;9.90;8.73;;;;;;;19.66;37.12;98712.31;4854251;29;20426;-90
2022/12/18 05:27:46;;;;;;;11.00;9.83;;;;;;;17.67;37.00;98360.44;4858017;29;20215;-91
2022/12/18 05:30:13;;;;;;;11.10;9.67;;;;;;;16.18;37.18;98125.56;4857088;29;20397;-90
2022/12/18 05:32:39;;;;;;;10.47;9.10;;;;;;;15.31;37.05;97927.69;4852752;29;20263;-91
2022/12/18 05:35:07;;;;;;;11.70;9.67;;;;;;;18.68;37.11;98518.97;4855647;29;20286;-90
2022/12/18 05:37:33;;;;;;;10.90;9.50;;;;;;;19.83;37.22;98724.31;4845587;29;20298;-91
2022/12/18 05:40:08;;;;;;;10.40;9.10;;;;;;;18.33;37.21;98468.59;4881611;29;20276;-90
2022/12/18 05:42:35;;;;;;;9.23;8.27;;;;;;;19.08;37.12;98594.25;4860386;29;20318;-90
2022/12/18 05:45:05;;;;;;;10.40;9.30;;;;;;;18.94;37.20;98598.59;4867241;29;20303;-90
2022/12/18 05:47:34;;;;;;;9.77;8.50;;;;;;;19.13;37.06;98623.44;4846163;29;20229;-90
2022/12/18 05:50:01;;;;;;;9.93;8.93;;;;;;;19.40;36.87;98665.78;4877342;29;20214;-90
2022/12/18 05:52:27;;;;;;;10.70;9.60;;;;;;;19.30;36.91;98643.97;4861419;29;20314;-91
2022/12/18 05:54:54;;;;;;;10.43;9.37;;;;;;;18.65;36.76;98523.91;4881015;29;20215;-90
2022/12/18 05:57:21;;;;;;;10.73;9.17;;;;;;;18.75;36.67;98557.59;4871039;29;20210;-91
2022/12/18 05:59:47;;;;;;;9.73;8.73;;;;;;;19.38;36.90;98659.69;4872992;29;20211;-91
2022/12/18 06:02:14;;;;;;;10.33;8.87;;;;;;;19.54;36.80;98673.38;4850573;29;20597;-90
2022/12/18 06:04:40;;;;;;;10.33;9.17;;;;;;;17.44;36.70;98327.78;4859235;29;20225;-91
2022/12/18 06:07:07;;;;;;;10.17;9.07;;;;;;;18.53;36.73;98503.69;4861035;29;20659;-91
2022/12/18 06:09:34;;;;;;;10.03;8.67;;;;;;;18.30;36.70;98454.81;4859341;29;20217;-89
2022/12/18 06:12:00;;;;;;;9.90;8.67;;;;;;;19.69;36.76;98709.06;4872931;29;20250;-91
2022/12/18 06:14:27;;;;;;;10.30;9.17;;;;;;;19.38;37.07;98658.03;4857692;29;20668;-91
2022/12/18 06:16:54;;;;;;;9.27;8.33;;;;;;;18.93;36.96;98589.19;4842954;29;20273;-88
2022/12/18 06:19:20;;;;;;;10.57;8.60;;;;;;;18.54;37.00;98522.41;4864696;29;20204;-91
2022/12/18 06:21:47;;;;;;;9.83;8.13;;;;;;;19.32;36.91;98652.59;4857383;29;20615;-90
2022/12/18 06:24:14;;;;;;;9.20;8.27;;;;;;;17.98;36.88;98409.75;4856514;29;20242;-91
2022/12/18 06:26:41;;;;;;;10.37;8.93;;;;;;;18.55;37.11;98527.59;4863343;29;20216;-91
2022/12/18 06:29:07;;;;;;;9.57;8.67;;;;;;;18.67;37.03;98556.28;4858006;29;20724;-90
2022/12/18 06:31:34;;;;;;;9.50;8.50;;;;;;;19.63;37.05;98716.38;4844763;29;20231;-91
2022/12/18 06:34:04;;;;;;;10.47;9.07;;;;;;;19.55;36.95;98713.41;4858569;29;20215;-91
2022/12/18 06:36:31;;;;;;;8.87;7.93;;;;;;;19.77;36.92;98756.25;4872574;29;20219;-91
2022/12/18 06:38:57;;;;;;;8.97;8.07;;;;;;;19.21;37.19;98665.47;4875827;29;20222;-91
2022/12/18 06:41:24;;;;;;;9.23;8.33;;;;;;;19.16;36.57;98649.94;4860582;29;20234;-91
2022/12/18 06:43:50;;;;;;;9.60;8.43;;;;;;;19.19;37.02;98646.72;4858245;29;20211;-90
2022/12/18 06:46:23;;;;;;;9.60;8.33;;;;;;;17.82;36.93;98423.22;4855603;29;20281;-91
2022/12/18 06:48:50;;;;;;;8.90;8.00;;;;;;;19.33;36.87;98671.34;4859494;29;20567;-90
2022/12/18 06:51:21;;;;;;;9.63;8.30;;;;;;;19.03;37.10;98629.66;4857986;29;20229;-91
2022/12/18 06:53:48;;;;;;;9.13;8.20;;;;;;;19.10;36.95;98636.84;4871127;29;20301;-91
2022/12/18 06:56:14;;;;;;;9.63;8.40;;;;;;;19.36;37.36;98695.31;4860655;29;20591;-90
2022/12/18 06:58:41;;;;;;;8.47;7.57;;;;;;;18.74;36.85;98598.25;4869234;29;20203;-91
2022/12/18 07:01:09;;;;;;;9.37;8.43;;;;;;;18.95;36.79;98625.81;4861831;29;20214;-91
2022/12/18 07:03:37;;;;;;;9.30;8.10;;;;;;;19.99;36.80;98797.50;4860475;29;20207;-90
2022/12/18 07:06:05;;;;;;;9.07;8.17;;;;;;;19.44;36.69;98709.38;4863893;29;20218;-90
2022/12/18 07:08:31;;;;;;;9.77;8.33;;;;;;;19.30;36.65;98689.88;4853257;29;20211;-91
2022/12/18 07:10:58;;;;;;;9.67;8.70;;;;;;;19.07;37.03;98653.66;4873319;29;20312;-90
2022/12/18 07:13:24;;;;;;;9.57;8.33;;;;;;;19.58;36.97;98739.09;4864215;29;20207;-91
2022/12/18 07:15:51;;;;;;;8.90;8.00;;;;;;;19.54;36.73;98732.03;4877331;29;20654;-90
2022/12/18 07:18:17;;;;;;;8.90;8.00;;;;;;;20.00;37.02;98817.09;4874776;29;20266;-91
2022/12/18 07:20:44;;;;;;;9.23;8.20;;;;;;;19.60;36.65;98747.66;4894635;29;20274;-91
2022/12/18 07:23:13;;;;;;;9.33;8.23;;;;;;;19.33;37.19;98704.47;4870273;29;20248;-90
2022/12/18 07:25:39;;;;;;;10.47;8.83;;;;;;;20.05;37.08;98822.47;4879199;29;20238;-90
2022/12/18 07:28:06;;;;;;;10.40;8.97;;;;;;;19.34;37.04;98702.00;4865309;29;20206;-90
2022/12/18 07:30:38;;;;;;;17.43;14.63;;;;;;;20.05;34.99;98823.34;4864798;29;20211;-88
2022/12/18 07:33:04;;;;;;;20.83;17.90;;;;;;;19.62;33.39;98760.50;4853985;29;20234;-91
2022/12/18 07:35:32;;;;;;;23.60;20.20;;;;;;;19.37;31.53;98729.34;4878821;29;20207;-91
2022/12/18 07:37:58;;;;;;;25.70;21.10;;;;;;;18.90;31.00;98644.16;4859067;29;20303;-91
2022/12/18 07:40:25;;;;;;;25.90;20.57;;;;;;;19.94;29.54;98810.00;4872499;29;20687;-90
2022/12/18 07:42:51;;;;;;;23.27;20.37;;;;;;;19.49;29.53;98740.22;4890165;29;20612;-92
2022/12/18 07:45:18;;;;;;;25.23;21.10;;;;;;;19.94;29.73;98829.53;4869419;29;20699;-92
2022/12/18 07:47:44;;;;;;;23.43;19.63;;;;;;;18.73;29.03;98617.75;4866331;29;20218;-91
2022/12/18 07:50:11;;;;;;;23.47;20.33;;;;;;;19.07;30.07;98689.34;4869337;29;20207;-91
2022/12/18 07:52:37;;;;;;;23.57;19.43;;;;;;;19.88;30.87;98822.41;4890948;29;20223;-90
2022/12/18 07:55:04;;;;;;;21.27;18.37;;;;;;;19.20;31.28;98707.97;4888628;29;20679;-91
2022/12/18 07:57:32;;;;;;;20.97;17.20;;;;;;;18.80;32.08;98647.84;4863636;29;20211;-91
2022/12/18 08:00:16;;;;;;;20.33;17.83;;;;;;;19.58;32.44;98779.00;4879169;29;20235;-91
2022/12/18 08:02:43;;;;;;;19.23;16.47;;;;;;;18.98;32.61;98682.03;4860192;29;20318;-92
2022/12/18 08:05:09;;;;;;;17.33;15.27;;;;;;;19.13;32.65;98716.03;4875977;29;20235;-91
2022/12/18 08:07:36;;;;;;;18.37;15.77;;;;;;;19.46;32.85;98779.19;4878243;29;20731;-91
2022/12/18 08:10:03;;;;;;;18.67;15.50;;;;;;;19.34;33.19;98747.00;4878696;29;20211;-92
2022/12/18 08:12:29;;;;;;;17.03;15.20;;;;;;;19.49;32.86;98804.84;4860728;29;20220;-91
2022/12/18 08:14:56;;;;;;;17.63;14.80;;;;;;;19.36;33.29;98761.59;4863150;29;20211;-91
2022/12/18 08:17:22;;;;;;;15.90;14.17;;;;;;;18.92;33.30;98686.75;4863482;29;20207;-92
2022/12/18 08:19:49;;;;;;;16.47;13.97;;;;;;;19.17;33.74;98747.66;4878639;29;20659;-91
2022/12/18 08:22:15;;;;;;;15.70;13.67;;;;;;;19.64;33.84;98815.94;4864683;29;20314;-91
2022/12/18 08:24:42;;;;;;;15.57;13.20;;;;;;;19.11;33.95;98730.38;4857506;29;20216;-91
2022/12/18 08:27:09;;;;;;;16.57;13.70;;;;;;;18.44;34.08;98632.13;4882569;29;20211;-91
2022/12/18 08:29:56;;;;;;;15.27;13.00;;;;;;;19.20;34.22;98760.59;4871349;29;20207;-89
2022/12/18 08:32:23;;;;;;;14.83;12.07;;;;;;;19.17;34.40;98746.00;4860060;29;20607;-91
2022/12/18 08:34:50;;;;;;;14.50;12.17;;;;;;;19.76;34.53;98847.25;4877399;29;20215;-90
2022/12/18 08:37:16;;;;;;;14.27;12.40;;;;;;;18.85;35.05;98687.22;4880709;29;20211;-91
2022/12/18 08:39:43;;;;;;;12.77;10.80;;;;;;;19.49;34.39;98803.97;4880409;29;20244;-90
2022/12/18 08:44:55;;;;;;;11.67;10.40;;;;;;;17.94;34.83;98534.94;4890557;29;20220;-90
2022/12/18 08:47:21;;;;;;;13.10;11.57;;;;;;;19.18;35.02;98757.06;4862528;29;20231;-90
2022/12/18 08:49:48;;;;;;;12.17;10.27;;;;;;;19.29;34.78;98773.91;4887754;29;20211;-90
2022/12/18 08:52:14;;;;;;;12.03;10.43;;;;;;;19.45;34.59;98805.44;4882757;29;20226;-87
2022/12/18 08:54:41;;;;;;;12.23;10.73;;;;;;;19.42;34.85;98791.66;4861298;29;20293;-91
2022/12/18 08:57:07;;;;;;;12.27;10.63;;;;;;;18.76;34.76;98679.03;4878289;29;20214;-90
2022/12/18 08:59:34;;;;;;;11.60;10.13;;;;;;;19.52;35.14;98820.34;4876327;29;20656;-91
2022/12/18 09:02:00;;;;;;;11.40;10.10;;;;;;;19.01;35.28;98720.41;4876819;29;20610;-90
2022/12/18 09:04:27;;;;;;;11.50;10.30;;;;;;;19.13;34.42;98735.56;4873449;29;20215;-90
2022/12/18 09:06:55;;;;;;;11.37;10.17;;;;;;;18.96;35.07;98704.00;4881874;29;20207;-90
2022/12/18 09:09:21;;;;;;;11.23;9.70;;;;;;;19.34;34.75;98772.50;4859629;29;20212;-90
2022/12/18 09:11:48;;;;;;;11.40;10.07;;;;;;;19.05;34.98;98722.38;4852929;29;20726;-90
2022/12/18 09:14:14;;;;;;;12.60;10.07;;;;;;;18.46;34.86;98615.25;4882322;29;20302;-90
2022/12/18 09:16:41;;;;;;;11.30;9.47;;;;;;;19.60;34.59;98842.03;4889011;29;20212;-91
2022/12/18 09:19:08;;;;;;;11.20;9.73;;;;;;;18.80;34.89;98673.31;4877636;29;20238;-90
2022/12/18 09:21:38;;;;;;;11.03;9.20;;;;;;;19.66;34.90;98821.97;4870972;29;20234;-91
2022/12/18 09:24:14;;;;;;;11.17;9.73;;;;;;;19.64;34.98;98825.25;4889022;29;20207;-90
2022/12/18 09:26:41;;;;;;;10.23;8.87;;;;;;;19.66;35.07;98819.44;4859436;29;20630;-90
2022/12/18 09:29:12;;;;;;;10.70;9.17;;;;;;;19.70;35.18;98823.03;4871069;29;20234;-90
2022/12/18 09:31:38;;;;;;;10.47;9.37;;;;;;;19.33;35.15;98758.00;4862501;29;20234;-89
2022/12/18 09:34:05;;;;;;;10.23;8.97;;;;;;;19.11;35.51;98720.16;4877152;29;20566;-90
2022/12/18 09:36:32;;;;;;;10.10;9.00;;;;;;;19.74;35.19;98840.28;4861549;29;20275;-90
2022/12/18 09:38:58;;;;;;;11.10;9.03;;;;;;;19.33;35.23;98771.59;4861223;29;20203;-91
2022/12/18 09:41:40;;;;;;;9.47;8.47;;;;;;;18.55;34.56;98643.78;4930526;23;20701;-85
2022/12/18 09:44:39;;;;;;;10.63;8.83;;;;;;;19.95;34.86;98857.69;4910231;29;20211;-86
2022/12/18 09:47:33;;;;;;;11.47;8.93;;;;;;;18.88;34.54;98702.66;4916512;29;20240;-85
2022/12/18 09:50:02;;;;;;;9.60;8.40;;;;;;;19.63;34.80;98780.13;4909189;29;20205;-86
2022/12/18 09:52:39;;;;;;;9.17;8.27;;;;;;;19.95;34.96;98839.81;4924579;29;20233;-86
2022/12/18 09:55:31;;;;;;;9.77;8.30;;;;;;;19.96;35.31;98833.06;4921263;29;20221;-86
2022/12/18 09:58:25;;;;;;;10.80;8.27;;;;;;;19.95;35.10;98834.72;4919555;29;20225;-86
2022/12/18 10:00:55;;;;;;;10.00;8.13;;;;;;;19.14;35.31;98689.78;4921365;29;20353;-85
2022/12/18 10:03:22;;;;;;;9.37;8.40;;;;;;;17.81;35.24;98469.81;4907161;29;20222;-86
2022/12/18 10:06:10;;;;;;;9.30;8.20;;;;;;;14.37;35.46;97855.25;4898441;29;20217;-84
2022/12/18 10:08:58;;;;;;;10.00;7.53;;;;;;;19.13;35.37;98687.13;4910706;29;20229;-86
2022/12/18 10:11:41;;;;;;;9.23;8.23;;;;;;;19.24;35.34;98750.66;4920056;29;20236;-86
2022/12/18 10:14:32;;;;;;;8.60;7.70;;;;;;;19.98;35.38;98835.69;4898416;29;20212;-87
2022/12/18 10:17:20;;;;;;;8.63;7.73;;;;;;;19.98;35.11;98832.34;4916360;29;20209;-86
2022/12/18 10:19:50;;;;;;;9.73;8.20;;;;;;;18.11;35.25;98509.72;4926066;29;20593;-85
2022/12/18 10:22:32;;;;;;;9.33;8.27;;;;;;;19.99;35.12;98831.53;4921805;29;20232;-87
2022/12/18 10:25:06;;;;;;;8.83;7.70;;;;;;;19.99;35.37;98831.53;4914970;29;20241;-88
2022/12/18 10:27:33;;;;;;;8.37;7.47;;;;;;;12.81;35.35;97568.31;4930596;29;20201;-87
2022/12/18 10:29:59;;;;;;;8.23;7.37;;;;;;;20.01;35.31;98833.31;4937304;29;20322;-86
2022/12/18 10:32:28;;;;;;;8.63;7.73;;;;;;;17.03;35.42;98312.63;4908044;29;20229;-87
2022/12/18 10:34:56;;;;;;;8.27;7.33;;;;;;;20.01;35.35;98830.75;4924294;29;20269;-86
2022/12/18 10:37:28;;;;;;;7.33;6.63;;;;;;;19.23;35.26;98697.94;4922332;29;20229;-86
2022/12/18 10:40:12;;;;;;;7.83;7.00;;;;;;;18.24;35.43;98527.44;4908547;29;20285;-85
2022/12/18 10:42:49;;;;;;;8.57;7.67;;;;;;;20.01;35.48;98833.31;4907283;29;20233;-84
2022/12/18 10:45:17;;;;;;;8.70;7.50;;;;;;;20.01;35.47;98829.06;4904467;29;20237;-85
2022/12/18 10:47:45;;;;;;;8.93;8.03;;;;;;;20.01;35.44;98831.63;4897359;29;20213;-85
2022/12/18 10:50:28;;;;;;;8.47;7.60;;;;;;;19.69;35.56;98773.69;4914890;29;20297;-84
2022/12/18 10:53:34;;;;;;;8.90;8.00;;;;;;;19.64;35.47;98764.03;4907639;29;20202;-85
2022/12/18 10:56:02;;;;;;;9.73;7.70;;;;;;;19.44;35.56;98734.88;4900703;29;20213;-85
2022/12/18 10:58:32;;;;;;;9.63;7.97;;;;;;;19.64;35.36;98761.50;4899789;29;20219;-85
2022/12/18 11:01:15;;;;;;;8.97;8.07;;;;;;;20.01;35.65;98831.63;4909402;29;20230;-85
2022/12/18 11:03:54;;;;;;;8.60;7.60;;;;;;;19.99;35.65;98831.53;4903834;29;20225;-85
2022/12/18 11:06:27;;;;;;;10.47;7.63;;;;;;;19.68;35.46;98786.34;4916097;29;20221;-85
2022/12/18 11:09:04;;;;;;;8.90;8.00;;;;;;;19.12;35.38;98681.16;4911040;29;20242;-85
2022/12/18 11:11:40;;;;;;;8.63;7.57;;;;;;;19.27;35.31;98701.59;4901109;29;20300;-85
2022/12/18 11:14:14;;;;;;;8.07;7.10;;;;;;;19.41;35.40;98732.16;4917566;29;20670;-85
2022/12/18 11:16:45;;;;;;;7.90;6.97;;;;;;;19.99;35.62;98830.66;4916692;29;20297;-85
2022/12/18 11:19:39;;;;;;;8.40;7.60;;;;;;;19.60;35.59;98762.13;4910194;29;20209;-85
2022/12/18 11:22:34;;;;;;;8.60;7.67;;;;;;;19.19;35.71;98721.47;4907216;29;20619;-85
2022/12/18 11:25:01;;;;;;;8.53;7.63;;;;;;;19.98;35.66;98832.34;4905108;29;20246;-86
2022/12/18 11:27:52;;;;;;;9.87;8.23;;;;;;;19.22;35.87;98696.16;4920239;29;20214;-85
2022/12/18 11:30:24;;;;;;;9.13;7.60;;;;;;;18.81;35.74;98628.38;4923055;29;20216;-86
2022/12/18 11:32:55;;;;;;;9.33;7.87;;;;;;;19.29;35.96;98690.66;4929211;29;20227;-85
2022/12/18 11:35:47;;;;;;;8.83;7.83;;;;;;;20.01;35.95;98815.44;4901929;29;20296;-86
2022/12/18 11:38:19;;;;;;;11.10;7.90;;;;;;;20.01;36.05;98811.19;4917283;29;20202;-84
2022/12/18 11:40:47;;;;;;;8.90;7.60;;;;;;;17.59;35.85;98393.06;4909362;29;20213;-89
2022/12/18 11:43:27;;;;;;;9.47;7.83;;;;;;;19.58;35.63;98743.28;4905500;29;20313;-86